createdAt,value
2022-10-29T00:01:34.387Z,75.07
2022-10-29T00:04:17.785Z,74.05
2022-10-29T00:07:01.197Z,75.33
2022-10-29T00:09:44.553Z,75.48
2022-10-29T00:12:28.053Z,75.92
2022-10-29T00:15:11.819Z,75.37
2022-10-29T00:17:55.732Z,75.25
2022-10-29T00:20:39.348Z,74.96
2022-10-29T00:23:22.825Z,73.73
2022-10-29T00:26:06.947Z,73.68
2022-10-29T00:28:56.131Z,74.11
2022-10-29T00:31:39.540Z,74.14
2022-10-29T00:34:22.970Z,73.74
2022-10-29T00:37:06.955Z,72.94
2022-10-29T00:39:50.317Z,76.93
2022-10-29T00:42:33.714Z,78.09
2022-10-29T00:45:21.011Z,77.80
2022-10-29T00:48:04.526Z,76.36
2022-10-29T00:50:49.412Z,77.80
2022-10-29T00:53:42.876Z,77.30
2022-10-29T00:56:32.905Z,76.67
2022-10-29T00:59:20.792Z,77.24
2022-10-29T01:02:04.551Z,77.83
2022-10-29T01:04:49.585Z,77.76
2022-10-29T01:07:33.553Z,77.86
2022-10-29T01:10:25.025Z,78.03
2022-10-29T01:13:41.455Z,77.43
2022-10-29T01:16:49.745Z,77.36
2022-10-29T01:20:10.570Z,77.07
2022-10-29T01:23:12.395Z,75.42
2022-10-29T01:25:58.608Z,76.35
2022-10-29T01:29:05.370Z,76.50
2022-10-29T01:32:07.363Z,77.55
2022-10-29T01:35:07.810Z,78.09
2022-10-29T01:38:18.910Z,76.94
2022-10-29T01:41:35.686Z,77.52
2022-10-29T01:44:48.154Z,77.67
2022-10-29T01:47:44.170Z,77.54
2022-10-29T01:50:28.181Z,77.09
2022-10-29T01:53:13.018Z,76.88
2022-10-29T01:55:56.558Z,75.51
2022-10-29T01:58:47.881Z,74.51
2022-10-29T02:02:15.779Z,74.82
2022-10-29T02:05:28.033Z,74.57
2022-10-29T02:08:26.387Z,73.98
2022-10-29T02:11:24.055Z,75.25
2022-10-29T02:14:36.776Z,75.72
2022-10-29T02:17:20.419Z,76.76
2022-10-29T02:20:10.518Z,77.18
2022-10-29T02:22:53.909Z,77.95
2022-10-29T02:25:38.089Z,77.40
2022-10-29T02:28:21.653Z,76.92
2022-10-29T02:31:06.069Z,79.19
2022-10-29T02:33:49.419Z,78.30
2022-10-29T02:36:32.936Z,77.95
2022-10-29T02:39:16.366Z,77.68
2022-10-29T02:41:59.723Z,77.99
2022-10-29T02:44:43.108Z,78.04
2022-10-29T02:47:26.571Z,78.20
2022-10-29T02:50:09.927Z,79.62
2022-10-29T02:52:53.348Z,78.87
2022-10-29T02:55:36.765Z,78.35
2022-10-29T03:01:24.314Z,80.50
2022-10-29T03:04:07.857Z,80.56
2022-10-29T03:06:51.275Z,80.13
2022-10-29T03:09:34.664Z,80.19
2022-10-29T03:12:18.150Z,79.58
2022-10-29T03:15:01.765Z,78.66
2022-10-29T03:17:45.161Z,81.15
2022-10-29T03:20:28.712Z,80.50
2022-10-29T03:23:12.131Z,79.21
2022-10-29T03:25:56.802Z,77.50
2022-10-29T03:28:40.262Z,77.04
2022-10-29T03:31:23.639Z,78.55
2022-10-29T03:34:07.024Z,77.58
2022-10-29T03:36:50.589Z,80.18
2022-10-29T03:39:33.986Z,78.63
2022-10-29T03:42:17.403Z,78.73
2022-10-29T03:45:02.330Z,77.87
2022-10-29T03:47:46.846Z,78.77
2022-10-29T03:50:30.523Z,77.22
2022-10-29T03:53:14.493Z,80.29
2022-10-29T03:55:58.418Z,80.84
2022-10-29T03:58:41.822Z,80.24
2022-10-29T04:01:25.359Z,80.22
2022-10-29T04:04:10.336Z,78.49
2022-10-29T04:06:53.696Z,79.43
2022-10-29T04:09:37.089Z,80.48
2022-10-29T04:12:20.512Z,81.12
2022-10-29T04:15:04.132Z,81.76
2022-10-29T04:17:51.322Z,80.71
2022-10-29T04:21:05.800Z,80.34
2022-10-29T04:29:47.090Z,80.54
2022-10-29T04:32:30.491Z,83.05
2022-10-29T04:35:13.871Z,80.36
2022-10-29T04:37:57.312Z,79.66
2022-10-29T04:40:40.717Z,80.13
2022-10-29T04:43:24.112Z,80.68
2022-10-29T04:46:07.469Z,78.94
2022-10-29T04:48:50.884Z,80.07
2022-10-29T04:51:34.422Z,78.55
2022-10-29T04:54:17.811Z,79.50
2022-10-29T04:57:04.267Z,79.00
2022-10-29T04:59:47.656Z,78.45
2022-10-29T05:02:31.111Z,77.81
2022-10-29T05:05:14.581Z,79.45
2022-10-29T05:08:00.645Z,79.65
2022-10-29T05:10:46.267Z,81.30
2022-10-29T05:13:31.000Z,81.52
2022-10-29T05:16:14.360Z,79.96
2022-10-29T05:18:57.721Z,80.12
2022-10-29T05:21:41.135Z,79.40
2022-10-29T05:24:24.665Z,81.22
2022-10-29T05:27:08.291Z,79.82
2022-10-29T05:29:51.653Z,79.22
2022-10-29T05:35:38.857Z,79.23
2022-10-29T05:38:22.409Z,79.81
2022-10-29T05:41:05.874Z,79.91
2022-10-29T05:43:50.252Z,79.20
2022-10-29T05:46:33.606Z,78.59
2022-10-29T05:49:17.114Z,80.99
2022-10-29T05:52:00.490Z,79.32
2022-10-29T05:54:43.875Z,79.32
2022-10-29T05:57:28.756Z,78.96
2022-10-29T06:00:12.578Z,77.98
2022-10-29T06:02:57.057Z,79.21
2022-10-29T06:05:40.982Z,80.80
2022-10-29T06:08:24.604Z,83.46
2022-10-29T06:11:08.000Z,83.69
2022-10-29T06:13:55.714Z,84.09
2022-10-29T06:16:39.080Z,81.44
2022-10-29T06:19:22.600Z,81.75
2022-10-29T06:22:06.082Z,84.42
2022-10-29T06:24:49.555Z,84.91
2022-10-29T06:27:32.989Z,82.40
2022-10-29T06:30:16.493Z,81.90
2022-10-29T06:33:00.537Z,82.26
2022-10-29T06:35:44.564Z,81.48
2022-10-29T06:38:27.982Z,82.56
2022-10-29T06:41:11.532Z,80.81
2022-10-29T06:43:55.017Z,81.09
2022-10-29T06:46:39.071Z,81.23
2022-10-29T06:49:22.562Z,82.12
2022-10-29T06:52:06.012Z,82.16
2022-10-29T06:54:49.359Z,81.93
2022-10-29T06:57:32.800Z,81.87
2022-10-29T07:00:16.326Z,82.75
2022-10-29T07:03:00.595Z,81.71
2022-10-29T07:05:45.155Z,81.71
2022-10-29T07:08:29.072Z,80.93
2022-10-29T07:11:12.478Z,82.49
2022-10-29T07:13:56.516Z,82.91
2022-10-29T07:16:39.878Z,83.09
2022-10-29T07:19:23.310Z,84.43
2022-10-29T07:22:06.742Z,82.44
2022-10-29T07:24:50.416Z,82.53
2022-10-29T07:27:33.878Z,82.45
2022-10-29T07:30:17.800Z,82.92
2022-10-29T07:33:01.211Z,82.99
2022-10-29T07:35:54.464Z,82.55
2022-10-29T07:38:40.287Z,82.67
2022-10-29T07:41:23.685Z,83.78
2022-10-29T07:44:07.046Z,84.84
2022-10-29T07:46:50.519Z,87.27
2022-10-29T07:49:34.019Z,87.96
2022-10-29T07:52:17.551Z,87.77
2022-10-29T07:55:02.907Z,87.31
2022-10-29T07:57:46.441Z,86.63
2022-10-29T08:00:31.800Z,87.89
2022-10-29T08:03:15.682Z,87.03
2022-10-29T08:05:59.336Z,86.63
2022-10-29T08:08:42.913Z,87.07
2022-10-29T08:11:26.467Z,86.67
2022-10-29T08:14:10.065Z,86.22
2022-10-29T08:16:54.978Z,84.94
2022-10-29T08:19:38.576Z,84.73
2022-10-29T08:22:22.270Z,85.72
2022-10-29T08:25:06.087Z,85.10
2022-10-29T08:28:04.704Z,84.28
2022-10-29T08:30:50.760Z,84.47
2022-10-29T08:33:34.456Z,83.48
2022-10-29T08:36:18.117Z,83.46
2022-10-29T08:39:01.671Z,84.38
2022-10-29T08:42:41.322Z,84.55
2022-10-29T08:45:48.040Z,84.12
2022-10-29T08:48:47.262Z,82.86
2022-10-29T08:51:49.264Z,82.25
2022-10-29T08:54:40.054Z,82.51
2022-10-29T08:57:26.364Z,82.85
2022-10-29T09:00:38.743Z,82.17
2022-10-29T09:03:22.816Z,83.11
2022-10-29T09:06:51.705Z,82.89
2022-10-29T09:09:39.313Z,82.13
2022-10-29T09:12:50.021Z,80.71
2022-10-29T09:16:01.544Z,81.19
2022-10-29T09:19:38.333Z,81.17
2022-10-29T09:22:40.387Z,80.83
2022-10-29T09:25:33.394Z,79.92
2022-10-29T09:28:24.585Z,77.96
2022-10-29T09:31:17.212Z,78.88
2022-10-29T09:34:18.069Z,78.31
2022-10-29T09:37:04.929Z,76.64
2022-10-29T09:39:48.821Z,78.14
2022-10-29T09:42:41.836Z,77.04
2022-10-29T09:45:46.089Z,76.20
2022-10-29T09:48:39.633Z,75.59
2022-10-29T09:51:49.774Z,74.00
2022-10-29T09:54:34.232Z,75.47
2022-10-29T09:57:29.605Z,75.25
2022-10-29T10:00:29.524Z,75.53
2022-10-29T10:03:45.758Z,76.50
2022-10-29T10:06:29.357Z,76.74
2022-10-29T10:09:12.857Z,76.03
2022-10-29T10:11:59.375Z,75.16
2022-10-29T10:14:42.881Z,75.91
2022-10-29T10:17:26.432Z,75.72
2022-10-29T10:20:40.906Z,75.32
2022-10-29T10:23:40.780Z,76.18
2022-10-29T10:26:39.471Z,76.40
2022-10-29T10:29:23.840Z,76.16
2022-10-29T10:32:08.998Z,75.38
2022-10-29T10:34:52.590Z,72.60
2022-10-29T10:37:36.262Z,73.20
2022-10-29T10:40:25.198Z,73.97
2022-10-29T10:43:23.529Z,71.98
2022-10-29T10:46:25.301Z,70.99
2022-10-29T10:49:12.001Z,71.68
2022-10-29T10:51:58.431Z,71.93
2022-10-29T10:54:59.884Z,70.53
2022-10-29T10:58:09.792Z,70.46
2022-10-29T11:01:13.531Z,70.31
2022-10-29T11:04:12.899Z,70.30
2022-10-29T11:07:06.335Z,71.30
2022-10-29T11:09:53.133Z,70.89
2022-10-29T11:12:49.468Z,69.80
2022-10-29T11:15:47.678Z,69.42
2022-10-29T11:18:43.980Z,71.25
2022-10-29T11:21:36.162Z,70.41
2022-10-29T11:24:49.809Z,71.66
2022-10-29T11:28:15.962Z,68.99
2022-10-29T11:31:17.825Z,71.22
2022-10-29T11:34:20.951Z,69.69
2022-10-29T11:37:18.134Z,71.18
2022-10-29T11:40:27.514Z,71.77
2022-10-29T11:43:19.828Z,70.10
2022-10-29T11:46:27.102Z,69.89
2022-10-29T11:49:30.605Z,68.75
2022-10-29T11:52:54.143Z,72.01
2022-10-29T11:56:07.201Z,69.83
2022-10-29T11:59:38.432Z,69.20
2022-10-29T12:03:22.245Z,69.34
2022-10-29T12:06:23.669Z,68.22
2022-10-29T12:09:34.077Z,68.31
2022-10-29T12:12:47.177Z,68.24
2022-10-29T12:15:45.169Z,67.20
2022-10-29T12:19:06.951Z,67.98
2022-10-29T12:22:26.574Z,67.59
2022-10-29T12:25:40.699Z,69.19
2022-10-29T12:28:40.251Z,67.62
2022-10-29T12:31:57.208Z,67.14
2022-10-29T12:35:12.501Z,66.43
2022-10-29T12:38:20.097Z,66.83
2022-10-29T12:41:30.003Z,66.28
2022-10-29T12:44:45.160Z,66.18
2022-10-29T12:47:38.094Z,66.55
2022-10-29T12:51:04.084Z,66.22
2022-10-29T12:54:24.083Z,66.31
2022-10-29T12:57:13.638Z,65.02
2022-10-29T12:59:58.710Z,66.68
2022-10-29T13:02:46.124Z,66.72
2022-10-29T13:05:42.800Z,65.88
2022-10-29T13:08:34.541Z,65.60
2022-10-29T13:11:25.137Z,65.36
2022-10-29T13:14:11.270Z,66.29
2022-10-29T13:16:58.059Z,66.71
2022-10-29T13:19:54.369Z,66.13
2022-10-29T13:25:57.855Z,65.12
2022-10-29T13:28:45.325Z,65.74
2022-10-29T13:31:28.629Z,66.69
2022-10-29T13:34:55.502Z,65.85
2022-10-29T13:38:09.711Z,67.22
2022-10-29T13:41:27.900Z,67.21
2022-10-29T13:44:23.048Z,66.99
2022-10-29T13:47:21.622Z,66.63
2022-10-29T13:50:07.482Z,67.34
2022-10-29T13:52:57.132Z,67.35
2022-10-29T13:55:44.913Z,67.53
2022-10-29T13:58:37.283Z,67.57
2022-10-29T14:01:24.684Z,66.95
2022-10-29T14:04:30.834Z,66.71
2022-10-29T14:07:23.750Z,66.54
2022-10-29T14:10:23.685Z,66.00
2022-10-29T14:13:31.405Z,67.90
2022-10-29T14:16:16.618Z,67.70
2022-10-29T14:19:15.363Z,68.27
2022-10-29T14:21:58.730Z,67.12
2022-10-29T14:24:42.179Z,68.65
2022-10-29T14:27:25.608Z,68.70
2022-10-29T14:30:20.267Z,67.42
2022-10-29T14:33:23.670Z,67.31
2022-10-29T14:36:43.348Z,67.63
2022-10-29T14:39:48.358Z,67.75
2022-10-29T14:42:48.937Z,67.24
2022-10-29T14:45:32.811Z,66.98
2022-10-29T14:48:18.904Z,66.98
2022-10-29T14:51:02.292Z,68.46
2022-10-29T14:53:52.211Z,67.35
2022-10-29T14:56:40.487Z,67.87
2022-10-29T14:59:29.401Z,68.14
2022-10-29T15:05:26.816Z,67.26
2022-10-29T15:08:10.074Z,67.27
2022-10-29T15:10:56.459Z,67.16
2022-10-29T15:13:39.881Z,67.21
2022-10-29T15:16:23.555Z,67.09
2022-10-29T15:19:15.384Z,66.94
2022-10-29T15:21:58.782Z,66.84
2022-10-29T15:24:49.236Z,67.47
2022-10-29T15:27:36.456Z,67.37
2022-10-29T15:30:27.541Z,67.05
2022-10-29T15:33:27.792Z,66.68
2022-10-29T15:36:11.198Z,67.12
2022-10-29T15:39:48.832Z,67.42
2022-10-29T15:42:35.990Z,66.69
2022-10-29T15:45:28.797Z,66.90
2022-10-29T15:48:12.322Z,67.04
2022-10-29T15:50:57.628Z,67.56
2022-10-29T15:53:41.241Z,68.60
2022-10-29T15:56:25.801Z,68.01
2022-10-29T15:59:22.994Z,67.92
2022-10-29T16:02:17.685Z,68.14
2022-10-29T16:05:01.319Z,68.42
2022-10-29T16:07:47.399Z,67.91
2022-10-29T16:10:31.499Z,68.39
2022-10-29T16:13:18.073Z,69.70
2022-10-29T16:16:01.734Z,68.59
2022-10-29T16:18:49.067Z,68.22
2022-10-29T16:21:32.689Z,68.37
2022-10-29T16:24:16.133Z,69.22
2022-10-29T16:26:59.528Z,68.56
2022-10-29T16:29:43.518Z,69.63
2022-10-29T16:32:26.937Z,69.37
2022-10-29T16:35:26.186Z,68.72
2022-10-29T16:38:10.257Z,68.78
2022-10-29T16:40:53.762Z,69.08
2022-10-29T16:43:37.129Z,69.20
2022-10-29T16:46:20.612Z,68.77
2022-10-29T16:49:04.005Z,70.89
2022-10-29T16:51:47.801Z,69.20
2022-10-29T16:54:31.212Z,71.84
2022-10-29T16:57:14.598Z,71.29
2022-10-29T16:59:58.088Z,70.28
2022-10-29T17:02:44.595Z,71.14
2022-10-29T17:05:28.041Z,70.12
2022-10-29T17:08:12.456Z,71.17
2022-10-29T17:10:59.563Z,69.70
2022-10-29T17:13:43.044Z,71.67
2022-10-29T17:16:26.502Z,71.52
2022-10-29T17:19:09.896Z,70.85
2022-10-29T17:21:53.459Z,71.64
2022-10-29T17:24:36.930Z,72.31
2022-10-29T17:27:20.327Z,72.23
2022-10-29T17:30:04.059Z,71.49
2022-10-29T17:32:47.562Z,71.24
2022-10-29T17:35:30.935Z,71.04
2022-10-29T17:38:14.328Z,70.84
2022-10-29T17:40:57.760Z,71.33
2022-10-29T17:43:41.238Z,71.96
2022-10-29T17:46:24.811Z,70.80
2022-10-29T17:49:08.634Z,71.19
2022-10-29T17:51:52.832Z,71.44
2022-10-29T17:54:36.297Z,72.04
2022-10-29T17:57:19.746Z,71.43
2022-10-29T18:00:04.346Z,71.24
2022-10-29T18:02:51.561Z,71.16
2022-10-29T18:05:35.026Z,71.17
2022-10-29T18:08:18.443Z,71.60
2022-10-29T18:11:16.973Z,72.23
2022-10-29T18:14:00.409Z,72.27
2022-10-29T18:16:43.872Z,73.70
2022-10-29T18:19:27.301Z,73.73
2022-10-29T18:22:10.681Z,72.11
2022-10-29T18:24:54.113Z,72.36
2022-10-29T18:27:39.616Z,73.73
2022-10-29T18:30:23.780Z,74.62
2022-10-29T18:33:07.233Z,74.65
2022-10-29T18:35:54.118Z,73.74
2022-10-29T18:38:38.471Z,73.22
2022-10-29T18:41:23.214Z,72.80
2022-10-29T18:44:07.311Z,72.31
2022-10-29T18:46:50.726Z,72.32
2022-10-29T18:49:34.153Z,72.48
2022-10-29T18:52:17.547Z,73.98
2022-10-29T18:55:01.103Z,75.51
2022-10-29T18:57:44.586Z,74.11
2022-10-29T19:00:28.031Z,72.78
2022-10-29T19:03:11.620Z,74.70
2022-10-29T19:05:54.975Z,74.98
2022-10-29T19:08:43.152Z,74.97
2022-10-29T19:11:27.046Z,73.23
2022-10-29T19:14:14.222Z,72.29
2022-10-29T19:16:57.616Z,73.01
2022-10-29T19:19:41.021Z,73.83
2022-10-29T19:22:24.380Z,74.56
2022-10-29T19:25:08.200Z,76.58
2022-10-29T19:27:52.046Z,74.86
2022-10-29T19:30:35.412Z,73.90
2022-10-29T19:33:18.823Z,75.10
2022-10-29T19:36:04.431Z,76.12
2022-10-29T19:38:48.067Z,75.34
2022-10-29T19:41:32.042Z,75.88
2022-10-29T19:44:15.438Z,74.91
2022-10-29T19:46:58.807Z,74.10
2022-10-29T19:49:42.175Z,74.75
2022-10-29T19:52:25.687Z,74.21
2022-10-29T19:55:09.623Z,75.46
2022-10-29T19:57:53.084Z,77.04
2022-10-29T20:00:37.610Z,76.36
2022-10-29T20:03:21.771Z,76.18
2022-10-29T20:06:06.682Z,76.68
2022-10-29T20:08:50.539Z,75.71
2022-10-29T20:11:33.943Z,81.48
2022-10-29T20:14:17.343Z,76.85
2022-10-29T20:17:00.909Z,79.25
2022-10-29T20:19:44.377Z,84.70
2022-10-29T20:22:27.786Z,87.52
2022-10-29T20:25:11.194Z,82.98
2022-10-29T20:27:54.672Z,78.63
2022-10-29T20:30:38.220Z,77.14
2022-10-29T20:33:21.661Z,76.08
2022-10-29T20:36:05.502Z,75.07
2022-10-29T20:38:53.420Z,76.00
2022-10-29T20:41:37.505Z,74.79
2022-10-29T20:44:20.914Z,75.48
2022-10-29T20:47:04.403Z,74.58
2022-10-29T20:49:47.843Z,76.08
2022-10-29T20:52:31.253Z,76.37
2022-10-29T20:55:14.732Z,75.23
2022-10-29T20:57:58.522Z,74.83
2022-10-29T21:00:42.388Z,75.68
2022-10-29T21:03:25.787Z,76.75
2022-10-29T21:06:16.995Z,74.93
2022-10-29T21:09:00.962Z,74.87
2022-10-29T21:11:44.391Z,74.96
2022-10-29T21:14:29.675Z,74.17
2022-10-29T21:17:13.101Z,75.51
2022-10-29T21:19:56.567Z,75.76
2022-10-29T21:22:40.316Z,74.95
2022-10-29T21:25:23.772Z,75.08
2022-10-29T21:28:07.194Z,75.22
2022-10-29T21:30:50.610Z,75.26
2022-10-29T21:33:34.055Z,74.55
2022-10-29T21:36:18.619Z,74.70
2022-10-29T21:39:02.029Z,74.93
2022-10-29T21:41:45.473Z,75.41
2022-10-29T21:44:28.870Z,75.21
2022-10-29T21:47:12.282Z,75.53
2022-10-29T21:49:55.750Z,75.68
2022-10-29T21:52:40.314Z,75.12
2022-10-29T21:55:23.689Z,74.97
2022-10-29T21:58:08.037Z,75.83
2022-10-29T22:00:52.119Z,76.04
2022-10-29T22:03:38.701Z,75.52
2022-10-29T22:06:25.752Z,75.97
2022-10-29T22:09:11.875Z,80.54
2022-10-29T22:11:55.946Z,78.16
2022-10-29T22:14:39.391Z,77.48
2022-10-29T22:17:22.920Z,77.84
2022-10-29T22:20:06.841Z,76.46
2022-10-29T22:22:50.423Z,77.16
2022-10-29T22:25:33.828Z,76.08
2022-10-29T22:28:17.235Z,75.72
2022-10-29T22:31:03.420Z,77.27
2022-10-29T22:33:49.252Z,77.35
2022-10-29T22:36:32.752Z,77.58
2022-10-29T22:39:16.153Z,78.16
2022-10-29T22:41:59.597Z,76.45
2022-10-29T22:44:43.070Z,77.68
2022-10-29T22:47:26.555Z,84.56
2022-10-29T22:50:10.256Z,87.82
2022-10-29T22:52:53.704Z,89.95
2022-10-29T22:55:37.122Z,85.43
2022-10-29T22:58:21.062Z,82.07
2022-10-29T23:01:14.540Z,80.19
2022-10-29T23:04:00.048Z,78.73
2022-10-29T23:06:43.479Z,78.59
2022-10-29T23:09:27.060Z,78.66
2022-10-29T23:12:10.492Z,77.51
2022-10-29T23:14:53.929Z,77.23
2022-10-29T23:17:37.348Z,76.42
2022-10-29T23:20:20.773Z,76.55
2022-10-29T23:23:04.181Z,78.00
2022-10-29T23:25:47.603Z,76.41
2022-10-29T23:28:39.083Z,76.32
2022-10-29T23:31:26.277Z,76.66
2022-10-29T23:34:12.150Z,76.61
2022-10-29T23:36:55.643Z,76.21
2022-10-29T23:39:39.029Z,75.87
2022-10-29T23:42:22.590Z,76.46
2022-10-29T23:45:07.990Z,76.09
2022-10-29T23:47:51.518Z,76.51
2022-10-29T23:50:36.068Z,75.72
2022-10-29T23:53:20.116Z,75.83
2022-10-29T23:56:03.911Z,75.78
2022-10-29T23:58:47.354Z,76.07
